Time;durP1;ratioP1;P1;durP2;ratioP2;P2;SDS_P1;SDS_P2;PMS_P1;PMS_P2;Temp;Humidity;BMP_temperature;BMP_pressure;BME280_temperature;BME280_humidity;BME280_pressure;Samples;Min_cycle;Max_cycle;Signal;HPM_P1;HPM_P2
2023/04/04 00:01:52;;;;;;;1.60;1.10;;;0.80;99.90;;;;;;5011855;28;20201;-71
2023/04/04 00:04:17;;;;;;;4.30;1.33;;;0.80;99.90;;;;;;5012101;28;20215;-74
2023/04/04 00:06:44;;;;;;;1.47;1.30;;;0.70;99.90;;;;;;5022298;28;20209;-72
2023/04/04 00:09:11;;;;;;;2.30;0.90;;;0.70;99.90;;;;;;5023276;28;20212;-74
2023/04/04 00:11:37;;;;;;;1.30;1.10;;;0.60;99.90;;;;;;5021042;28;20523;-73
2023/04/04 00:14:04;;;;;;;2.40;1.23;;;0.50;99.90;;;;;;5019921;28;20795;-73
2023/04/04 00:16:29;;;;;;;4.03;1.43;;;0.50;99.90;;;;;;5014893;28;20646;-71
2023/04/04 00:18:55;;;;;;;5.17;1.40;;;0.40;99.90;;;;;;5019036;28;20436;-72
2023/04/04 00:21:22;;;;;;;2.00;1.00;;;0.40;99.90;;;;;;5002295;28;20277;-73
2023/04/04 00:23:48;;;;;;;5.63;1.20;;;0.40;99.90;;;;;;5011088;28;20205;-72
2023/04/04 00:26:13;;;;;;;1.70;1.30;;;0.30;99.90;;;;;;5011492;28;20481;-72
2023/04/04 00:28:39;;;;;;;2.13;1.93;;;0.30;99.90;;;;;;5011192;28;20655;-73
2023/04/04 00:31:05;;;;;;;2.97;1.90;;;0.20;99.90;;;;;;5010969;28;20216;-72
2023/04/04 00:33:30;;;;;;;6.90;1.87;;;0.10;99.90;;;;;;5026764;28;20186;-72
2023/04/04 00:35:56;;;;;;;2.40;1.70;;;0.10;99.90;;;;;;5019181;28;20733;-72
2023/04/04 00:38:21;;;;;;;2.40;1.90;;;0.00;99.90;;;;;;5019711;28;20187;-73
2023/04/04 00:40:49;;;;;;;7.63;1.73;;;-0.10;99.90;;;;;;5027169;28;20294;-71
2023/04/04 00:43:15;;;;;;;4.90;1.57;;;-0.10;99.90;;;;;;5026192;28;20192;-72
2023/04/04 00:45:42;;;;;;;2.90;1.60;;;-0.10;99.90;;;;;;5014068;28;20464;-72
2023/04/04 00:48:07;;;;;;;2.53;2.00;;;-0.20;99.90;;;;;;5025398;28;20472;-71
2023/04/04 00:50:33;;;;;;;3.33;1.20;;;-0.30;99.90;;;;;;5011860;28;20977;-72
2023/04/04 00:52:58;;;;;;;1.60;1.20;;;-0.30;99.90;;;;;;5018002;28;20235;-73
2023/04/04 00:55:25;;;;;;;3.40;1.50;;;-0.40;99.90;;;;;;5010864;28;20211;-70
2023/04/04 00:57:51;;;;;;;1.70;1.60;;;-0.40;99.90;;;;;;5019028;28;20180;-72
2023/04/04 02:30:54;;;;;;;3.20;1.47;;;-1.50;99.90;;;;;;5888115;23;21052;-71
2023/04/04 02:33:19;;;;;;;5.00;1.60;;;-1.60;99.90;;;;;;4996813;28;20445;-73
2023/04/04 02:35:45;;;;;;;4.00;2.20;;;-1.60;99.90;;;;;;5000682;28;20240;-72
2023/04/04 02:38:11;;;;;;;3.80;2.47;;;-1.60;99.90;;;;;;5001672;28;20184;-71
2023/04/04 02:40:38;;;;;;;1.70;1.60;;;-1.60;99.90;;;;;;4993361;28;20224;-71
2023/04/04 02:43:04;;;;;;;2.97;2.23;;;-1.60;99.90;;;;;;4997579;28;20183;-71
2023/04/04 02:45:29;;;;;;;2.90;1.83;;;-1.60;99.90;;;;;;4997125;28;20819;-71
2023/04/04 02:47:55;;;;;;;2.00;1.80;;;-1.60;99.90;;;;;;4993125;28;20275;-71
2023/04/04 02:50:21;;;;;;;1.83;1.70;;;-1.60;99.90;;;;;;5001334;28;20203;-71
2023/04/04 02:52:46;;;;;;;1.70;1.60;;;-1.60;99.90;;;;;;4993134;28;20215;-69
2023/04/04 02:55:12;;;;;;;2.20;1.70;;;-1.60;99.90;;;;;;4992390;28;20191;-72
2023/04/04 02:57:37;;;;;;;10.80;1.40;;;-1.60;99.90;;;;;;5001756;28;20204;-70
2023/04/04 03:00:03;;;;;;;1.67;1.57;;;-1.70;99.90;;;;;;5000491;28;20246;-72
2023/04/04 03:02:29;;;;;;;2.00;1.80;;;-1.70;99.90;;;;;;5000744;28;20215;-72
2023/04/04 03:04:55;;;;;;;2.70;1.50;;;-1.60;99.90;;;;;;4992721;28;20459;-72
2023/04/04 03:07:21;;;;;;;2.13;1.63;;;-1.70;99.90;;;;;;4999349;28;20426;-73
2023/04/04 03:09:47;;;;;;;2.70;1.70;;;-1.60;99.90;;;;;;4994250;28;20667;-71
2023/04/04 03:12:13;;;;;;;3.13;1.90;;;-1.60;99.90;;;;;;4993205;28;20505;-72
2023/04/04 03:14:39;;;;;;;2.00;1.90;;;-1.60;99.90;;;;;;5008211;28;20221;-71
2023/04/04 03:17:05;;;;;;;5.00;1.90;;;-1.70;99.90;;;;;;4992616;28;20711;-72
2023/04/04 03:19:30;;;;;;;1.90;1.80;;;-1.70;99.90;;;;;;5008434;28;20514;-72
2023/04/04 03:21:56;;;;;;;3.30;2.10;;;-1.70;99.90;;;;;;4975659;28;20234;-72
2023/04/04 03:24:22;;;;;;;2.40;2.20;;;-1.80;99.90;;;;;;4992779;28;20183;-71
2023/04/04 03:26:47;;;;;;;2.10;1.67;;;-1.80;99.90;;;;;;4992270;28;20202;-72
2023/04/04 03:29:13;;;;;;;2.63;2.00;;;-1.80;99.90;;;;;;4992580;28;20672;-72
2023/04/04 03:31:38;;;;;;;2.23;1.90;;;-1.80;99.90;;;;;;4999733;28;20215;-72
2023/04/04 03:34:04;;;;;;;3.50;1.90;;;-1.80;99.90;;;;;;4992434;28;20723;-72
2023/04/04 03:36:30;;;;;;;3.17;1.93;;;-1.90;99.90;;;;;;4992317;28;20242;-72
2023/04/04 03:38:56;;;;;;;4.30;2.03;;;-1.80;99.90;;;;;;4992112;28;20186;-70
2023/04/04 03:41:21;;;;;;;2.63;2.43;;;-1.90;99.90;;;;;;4992213;28;20828;-71
2023/04/04 03:43:50;;;;;;;2.97;1.90;;;-1.90;99.90;;;;;;4992200;28;20183;-71
2023/04/04 03:46:15;;;;;;;2.90;1.97;;;-2.00;99.90;;;;;;4992264;28;20553;-71
2023/04/04 03:48:41;;;;;;;2.90;2.07;;;-1.90;99.90;;;;;;5000256;28;20428;-70
2023/04/04 03:51:06;;;;;;;3.63;2.67;;;-1.90;99.90;;;;;;4991930;28;20269;-71
2023/04/04 03:53:34;;;;;;;3.10;2.80;;;-2.00;99.90;;;;;;5007981;28;20285;-71
2023/04/04 03:56:00;;;;;;;5.73;2.40;;;-2.00;99.90;;;;;;4991841;28;20322;-71
2023/04/04 03:58:27;;;;;;;3.77;3.17;;;-2.00;99.90;;;;;;4992134;28;20510;-72
2023/04/04 04:00:53;;;;;;;3.00;2.20;;;-2.10;99.90;;;;;;4991609;28;20215;-72
2023/04/04 04:03:20;;;;;;;2.17;1.77;;;-2.10;99.90;;;;;;4992011;28;20407;-72
2023/04/04 04:05:46;;;;;;;7.83;2.63;;;-2.10;99.90;;;;;;4991620;28;20413;-72
2023/04/04 04:08:12;;;;;;;6.07;1.93;;;-2.20;99.90;;;;;;4999969;28;20430;-70
2023/04/04 04:10:37;;;;;;;2.60;2.40;;;-2.20;99.90;;;;;;4992660;28;20557;-72
2023/04/04 04:13:03;;;;;;;2.33;2.13;;;-2.30;99.90;;;;;;4991693;28;20207;-72
2023/04/04 04:15:28;;;;;;;3.00;2.03;;;-2.30;99.90;;;;;;4991816;28;20204;-71
2023/04/04 04:17:54;;;;;;;2.70;2.50;;;-2.30;99.90;;;;;;4991479;28;20249;-71
2023/04/04 04:20:19;;;;;;;4.00;2.47;;;-2.30;99.90;;;;;;4991513;28;20188;-71
2023/04/04 04:22:48;;;;;;;3.30;1.63;;;-2.30;99.90;;;;;;4991501;28;20252;-72
2023/04/04 04:25:15;;;;;;;4.53;2.60;;;-2.30;99.90;;;;;;4991613;28;20188;-72
2023/04/04 04:27:41;;;;;;;2.47;2.03;;;-2.30;99.90;;;;;;4999582;28;20485;-72
2023/04/04 04:30:07;;;;;;;4.90;1.73;;;-2.40;99.90;;;;;;4991463;28;20409;-72
2023/04/04 04:32:33;;;;;;;3.23;2.17;;;-2.40;99.90;;;;;;4991431;28;20498;-71
2023/04/04 04:34:59;;;;;;;2.90;2.33;;;-2.40;99.90;;;;;;4993831;28;20871;-72
2023/04/04 04:37:25;;;;;;;2.60;2.10;;;-2.40;99.90;;;;;;5005090;28;20171;-72
2023/04/04 04:39:51;;;;;;;3.37;2.40;;;-2.40;99.90;;;;;;4990956;28;20194;-72
2023/04/04 04:42:17;;;;;;;2.50;2.30;;;-2.40;99.90;;;;;;4991486;28;20513;-71
2023/04/04 04:44:43;;;;;;;2.50;2.30;;;-2.40;99.90;;;;;;4991213;28;20435;-72
2023/04/04 04:47:08;;;;;;;4.70;2.80;;;-2.40;99.90;;;;;;5003442;28;20290;-73
2023/04/04 04:49:34;;;;;;;7.47;2.93;;;-2.40;99.90;;;;;;4995311;28;20405;-72
2023/04/04 04:52:01;;;;;;;3.33;3.03;;;-2.40;99.90;;;;;;4999083;28;20226;-72
2023/04/04 04:54:26;;;;;;;3.47;2.53;;;-2.50;99.90;;;;;;4991306;28;20194;-72
2023/04/04 04:56:52;;;;;;;8.10;2.50;;;-2.40;99.90;;;;;;4990910;28;20438;-72
2023/04/04 04:59:18;;;;;;;4.50;2.43;;;-2.40;99.90;;;;;;4991161;28;20179;-70
2023/04/04 05:01:43;;;;;;;3.30;3.00;;;-2.30;99.90;;;;;;4990931;28;20458;-71
2023/04/04 05:04:09;;;;;;;2.33;2.00;;;-2.30;99.90;;;;;;4991164;28;20223;-72
2023/04/04 05:06:36;;;;;;;3.00;2.60;;;-2.30;99.90;;;;;;4973712;28;20625;-72
2023/04/04 05:09:02;;;;;;;3.53;2.43;;;-2.30;99.90;;;;;;4990881;28;20273;-72
2023/04/04 05:11:28;;;;;;;3.37;3.07;;;-2.30;99.90;;;;;;4992463;28;20572;-71
2023/04/04 05:13:53;;;;;;;6.30;3.10;;;-2.20;99.90;;;;;;5007193;28;20425;-71
2023/04/04 05:16:19;;;;;;;2.90;2.70;;;-2.10;99.90;;;;;;4991029;28;20196;-72
2023/04/04 05:18:45;;;;;;;4.70;3.07;;;-2.10;99.90;;;;;;4991961;28;20191;-71
2023/04/04 05:21:11;;;;;;;4.60;4.20;;;-2.10;99.90;;;;;;4994718;28;20293;-72
2023/04/04 05:23:36;;;;;;;11.27;5.03;;;-2.10;99.90;;;;;;4985397;28;20541;-71
2023/04/04 05:26:02;;;;;;;5.83;3.30;;;-2.00;99.90;;;;;;4994413;28;20203;-71
2023/04/04 05:28:28;;;;;;;9.93;4.30;;;-2.00;99.90;;;;;;4994703;28;20198;-72
2023/04/04 05:30:53;;;;;;;8.07;5.00;;;-1.90;99.90;;;;;;4993813;28;20446;-71
2023/04/04 05:33:19;;;;;;;5.60;4.47;;;-1.80;99.90;;;;;;4994066;28;20215;-74
2023/04/04 05:35:44;;;;;;;5.80;2.97;;;-1.70;99.90;;;;;;4993939;28;20187;-72
2023/04/04 05:38:10;;;;;;;3.50;3.30;;;-1.60;99.90;;;;;;4994390;28;20382;-72
2023/04/04 05:40:35;;;;;;;4.70;4.03;;;-1.40;99.90;;;;;;4994381;28;20187;-73
2023/04/04 05:43:03;;;;;;;5.53;3.13;;;-1.20;99.90;;;;;;4994280;28;20202;-72
2023/04/04 05:45:29;;;;;;;3.40;3.07;;;-1.10;99.90;;;;;;4994790;28;20550;-72
2023/04/04 05:47:54;;;;;;;5.73;3.77;;;-1.00;99.90;;;;;;5002718;28;20437;-72
2023/04/04 05:50:20;;;;;;;5.33;3.80;;;-0.90;99.90;;;;;;4994144;28;20530;-72
2023/04/04 05:52:45;;;;;;;8.23;4.20;;;-0.80;99.90;;;;;;5002503;28;20687;-72
2023/04/04 05:55:11;;;;;;;4.47;4.00;;;-0.60;99.90;;;;;;4994384;28;20764;-72
2023/04/04 05:57:37;;;;;;;6.43;3.90;;;-0.60;99.90;;;;;;4994158;28;20271;-72
2023/04/04 06:00:04;;;;;;;3.40;3.13;;;-0.40;99.90;;;;;;5010075;28;20199;-72
2023/04/04 06:02:30;;;;;;;2.93;2.73;;;-0.20;99.90;;;;;;4994152;28;20212;-72
2023/04/04 06:04:56;;;;;;;2.70;2.50;;;0.00;99.90;;;;;;4995322;28;20438;-71
2023/04/04 06:07:21;;;;;;;7.50;3.07;;;0.10;99.90;;;;;;5000409;28;20434;-72
2023/04/04 06:09:47;;;;;;;9.00;2.57;;;0.40;99.90;;;;;;5001586;28;20272;-72
2023/04/04 06:12:12;;;;;;;3.20;2.93;;;1.20;99.90;;;;;;4995912;28;20221;-72
2023/04/04 06:14:38;;;;;;;5.13;3.17;;;3.30;99.90;;;;;;4993947;28;20187;-73
2023/04/04 06:17:04;;;;;;;3.33;3.03;;;5.50;99.90;;;;;;4996195;28;20200;-75
2023/04/04 06:19:30;;;;;;;7.23;3.20;;;7.60;99.90;;;;;;5007316;28;20205;-71
2023/04/04 06:21:55;;;;;;;4.07;2.73;;;9.30;99.90;;;;;;4993647;28;20810;-73
2023/04/04 06:24:21;;;;;;;3.23;2.70;;;10.80;99.90;;;;;;4998592;28;20189;-73
2023/04/04 06:26:50;;;;;;;3.83;3.37;;;11.60;99.90;;;;;;5004762;28;20241;-73
2023/04/04 06:29:16;;;;;;;5.83;3.50;;;12.40;99.90;;;;;;5003216;28;20206;-74
2023/04/04 06:31:42;;;;;;;4.27;3.47;;;13.40;99.60;;;;;;5000250;28;21189;-73
2023/04/04 06:34:08;;;;;;;5.20;2.90;;;14.10;96.30;;;;;;4993525;28;20433;-71
2023/04/04 06:36:33;;;;;;;3.00;2.80;;;13.50;92.50;;;;;;4993494;28;20604;-72
2023/04/04 06:38:59;;;;;;;3.33;3.00;;;13.50;92.00;;;;;;4993177;28;20286;-73
2023/04/04 06:41:25;;;;;;;3.07;2.77;;;13.60;92.10;;;;;;4993384;28;20208;-71
2023/04/04 06:43:50;;;;;;;5.23;3.03;;;13.50;91.40;;;;;;5001335;28;20233;-71
2023/04/04 06:46:17;;;;;;;3.00;2.80;;;13.40;91.30;;;;;;4993287;28;20184;-73
2023/04/04 06:48:42;;;;;;;3.97;3.10;;;13.30;88.20;;;;;;5001345;28;20187;-73
2023/04/04 06:51:08;;;;;;;4.10;3.30;;;13.60;90.10;;;;;;4992941;28;20442;-73
2023/04/04 06:53:34;;;;;;;3.97;3.43;;;13.20;90.50;;;;;;4993311;28;20285;-73
2023/04/04 06:56:00;;;;;;;6.23;3.47;;;12.60;89.90;;;;;;4994533;28;20191;-71
2023/04/04 06:58:25;;;;;;;3.67;3.37;;;11.60;92.20;;;;;;4999566;28;20430;-72
2023/04/04 07:00:51;;;;;;;4.20;3.80;;;11.20;93.50;;;;;;5001834;28;20457;-73
2023/04/04 07:03:16;;;;;;;6.20;3.77;;;10.80;94.00;;;;;;5004255;28;20249;-73
2023/04/04 07:05:42;;;;;;;5.97;3.77;;;10.50;94.00;;;;;;5001767;28;20194;-73
2023/04/04 07:08:08;;;;;;;3.33;3.13;;;10.20;95.90;;;;;;5000929;28;20227;-72
2023/04/04 07:10:34;;;;;;;3.20;2.90;;;10.10;95.30;;;;;;5001500;28;20194;-72
2023/04/04 07:12:59;;;;;;;6.03;3.57;;;9.70;95.50;;;;;;5004100;28;20719;-72
2023/04/04 07:15:26;;;;;;;8.10;4.00;;;9.90;97.70;;;;;;5007309;28;20265;-70
2023/04/04 07:17:52;;;;;;;15.03;3.80;;;9.90;97.00;;;;;;5000857;28;20183;-73
2023/04/04 07:20:18;;;;;;;3.77;3.40;;;9.70;96.10;;;;;;4992923;28;20470;-73
2023/04/04 07:22:43;;;;;;;141.63;60.97;;;9.30;95.40;;;;;;5000443;28;20216;-74
2023/04/04 07:25:09;;;;;;;20.10;14.40;;;9.00;94.00;;;;;;5001752;28;21025;-73
2023/04/04 07:27:35;;;;;;;5.33;3.27;;;8.70;94.80;;;;;;5006009;28;20601;-72
2023/04/04 07:30:01;;;;;;;4.57;2.67;;;8.20;95.60;;;;;;5002180;28;20208;-73
2023/04/04 07:32:26;;;;;;;6.53;3.30;;;8.20;97.20;;;;;;5000421;28;20845;-72
2023/04/04 07:34:52;;;;;;;3.23;2.93;;;8.60;96.90;;;;;;4992054;28;20244;-75
2023/04/04 07:37:17;;;;;;;5.40;3.80;;;8.90;97.00;;;;;;4992277;28;20701;-72
2023/04/04 07:39:44;;;;;;;2.77;2.57;;;9.00;94.80;;;;;;5007570;28;20202;-72
2023/04/04 07:42:09;;;;;;;4.20;3.13;;;8.70;93.50;;;;;;5001775;28;20685;-73
2023/04/04 07:44:35;;;;;;;3.37;3.07;;;8.80;94.70;;;;;;4997626;28;20441;-73
2023/04/04 07:47:00;;;;;;;2.83;2.23;;;9.40;95.70;;;;;;4991548;28;20200;-73
2023/04/04 07:49:26;;;;;;;8.30;4.03;;;9.50;93.30;;;;;;4992301;28;20840;-72
2023/04/04 07:51:51;;;;;;;2.70;2.20;;;9.50;93.40;;;;;;5004471;28;20212;-72
2023/04/04 07:54:17;;;;;;;4.07;2.23;;;9.60;93.50;;;;;;4999727;28;20191;-73
2023/04/04 07:56:42;;;;;;;4.53;2.37;;;9.60;92.90;;;;;;4991736;28;20226;-72
2023/04/04 07:59:08;;;;;;;2.73;2.53;;;9.70;91.60;;;;;;4991709;28;20196;-73
2023/04/04 08:01:33;;;;;;;2.53;2.33;;;9.60;90.50;;;;;;4991858;28;20243;-73
2023/04/04 08:03:59;;;;;;;5.90;2.87;;;8.80;93.00;;;;;;4991583;28;20624;-72
2023/04/04 08:06:25;;;;;;;4.37;2.50;;;8.40;91.70;;;;;;4999951;28;20701;-73
2023/04/04 08:08:51;;;;;;;3.07;2.37;;;8.10;92.30;;;;;;4999638;28;20195;-73
2023/04/04 08:11:17;;;;;;;3.63;2.70;;;8.20;93.10;;;;;;4999764;28;20243;-73
2023/04/04 08:13:43;;;;;;;4.30;2.67;;;8.40;92.40;;;;;;4991615;28;20468;-72
2023/04/04 08:16:08;;;;;;;3.27;2.57;;;8.40;91.70;;;;;;4991121;28;20939;-72
2023/04/04 08:18:34;;;;;;;2.73;2.37;;;8.80;92.50;;;;;;4991744;28;20248;-72
2023/04/04 08:20:59;;;;;;;4.07;2.60;;;8.70;91.90;;;;;;4992113;28;20313;-73
2023/04/04 08:23:25;;;;;;;6.97;3.10;;;8.80;91.60;;;;;;4989157;28;20558;-73
2023/04/04 08:25:51;;;;;;;3.20;2.47;;;8.90;91.40;;;;;;4990853;28;20650;-75
2023/04/04 08:28:16;;;;;;;2.70;2.50;;;8.60;91.80;;;;;;4994607;28;20281;-73
2023/04/04 08:30:42;;;;;;;3.10;2.27;;;8.50;91.90;;;;;;4996003;28;20780;-73
2023/04/04 08:33:08;;;;;;;3.90;2.40;;;9.10;93.20;;;;;;4996422;28;20227;-74
2023/04/04 08:35:33;;;;;;;3.43;2.57;;;9.40;92.00;;;;;;4997088;28;20681;-73
2023/04/04 08:38:01;;;;;;;3.13;2.83;;;9.50;91.10;;;;;;4999523;28;20466;-73
2023/04/04 08:40:29;;;;;;;3.00;2.70;;;9.50;92.00;;;;;;4991281;28;20186;-73
2023/04/04 08:42:56;;;;;;;7.70;2.73;;;9.50;92.00;;;;;;4999073;28;20434;-71
2023/04/04 08:45:24;;;;;;;2.87;2.47;;;9.90;90.60;;;;;;4999509;28;20438;-74
2023/04/04 08:47:52;;;;;;;4.70;3.00;;;9.70;90.20;;;;;;4991144;28;20521;-73
2023/04/04 08:50:18;;;;;;;4.63;2.50;;;9.50;89.60;;;;;;4973529;28;20485;-73
2023/04/04 08:52:45;;;;;;;3.90;2.77;;;9.50;89.70;;;;;;4991164;28;20905;-75
2023/04/04 08:55:11;;;;;;;7.37;2.47;;;9.60;89.60;;;;;;5002749;28;20429;-74
2023/04/04 08:57:37;;;;;;;2.97;2.77;;;9.90;90.60;;;;;;4994956;28;20429;-73
2023/04/04 09:00:05;;;;;;;6.10;2.50;;;9.80;89.00;;;;;;5002932;28;20432;-74
2023/04/04 09:02:43;;;;;;;2.93;2.73;;;10.20;87.80;;;;;;4995266;28;20215;-73
2023/04/04 09:05:09;;;;;;;3.13;2.30;;;10.10;85.20;;;;;;4996879;28;20477;-73
2023/04/04 09:07:35;;;;;;;3.40;2.90;;;10.50;85.50;;;;;;5001016;28;20541;-73
2023/04/04 09:10:02;;;;;;;3.83;2.13;;;10.50;83.20;;;;;;5003140;28;20425;-73
2023/04/04 09:12:31;;;;;;;2.80;2.60;;;10.50;85.00;;;;;;4998261;28;20470;-72
2023/04/04 09:14:58;;;;;;;4.80;2.93;;;11.00;82.50;;;;;;4994718;28;20444;-71
2023/04/04 09:17:23;;;;;;;3.73;2.43;;;11.50;86.80;;;;;;4994819;28;20500;-73
2023/04/04 09:19:49;;;;;;;5.10;2.60;;;12.00;84.10;;;;;;4994713;28;20912;-73
2023/04/04 09:22:16;;;;;;;4.90;2.30;;;11.40;77.40;;;;;;4994710;28;20211;-72
2023/04/04 09:24:42;;;;;;;3.10;2.60;;;11.50;80.30;;;;;;4999418;28;20237;-73
2023/04/04 09:27:10;;;;;;;5.50;2.93;;;11.80;76.80;;;;;;5002454;28;20512;-73
2023/04/04 09:29:39;;;;;;;3.17;2.90;;;12.20;82.40;;;;;;5000211;28;20499;-74
2023/04/04 09:32:09;;;;;;;4.93;4.20;;;11.80;74.80;;;;;;4996381;28;20473;-73
2023/04/04 09:34:36;;;;;;;3.50;3.20;;;12.10;77.00;;;;;;4994817;28;20950;-73
2023/04/04 09:37:04;;;;;;;2.67;2.47;;;12.00;77.80;;;;;;4993934;28;20477;-73
2023/04/04 09:39:31;;;;;;;4.73;3.57;;;11.60;73.90;;;;;;4994658;28;20430;-73
2023/04/04 09:41:57;;;;;;;3.90;2.67;;;11.00;75.60;;;;;;5002253;28;20529;-73
2023/04/04 09:44:24;;;;;;;2.73;2.47;;;11.20;78.00;;;;;;4994703;28;20466;-73
2023/04/04 09:46:52;;;;;;;3.43;3.07;;;11.50;75.20;;;;;;5009177;28;20456;-73
2023/04/04 09:49:20;;;;;;;5.67;3.70;;;11.60;80.20;;;;;;4994800;28;20488;-72
2023/04/04 09:51:53;;;;;;;3.00;2.80;;;12.20;78.60;;;;;;5002290;28;20469;-73
2023/04/04 09:54:22;;;;;;;3.10;2.70;;;12.60;77.10;;;;;;5002423;28;20948;-73
2023/04/04 09:56:51;;;;;;;2.90;2.70;;;12.70;74.20;;;;;;5008858;28;20484;-73
2023/04/04 09:59:17;;;;;;;3.40;3.20;;;12.80;73.20;;;;;;4995806;28;20872;-73
2023/04/04 10:01:44;;;;;;;3.77;2.67;;;11.80;73.40;;;;;;4998475;28;20442;-73
2023/04/04 10:04:10;;;;;;;3.03;2.77;;;11.30;73.90;;;;;;4997666;28;20434;-73
2023/04/04 10:06:36;;;;;;;2.97;2.60;;;11.10;75.80;;;;;;4999923;28;20422;-73
2023/04/04 10:09:03;;;;;;;3.67;2.33;;;11.60;77.40;;;;;;4994331;28;20214;-71
2023/04/04 10:11:33;;;;;;;8.10;3.50;;;12.50;77.30;;;;;;4987804;28;20962;-73
2023/04/04 10:13:59;;;;;;;2.93;2.73;;;12.90;74.30;;;;;;4997005;28;20515;-73
2023/04/04 10:16:25;;;;;;;5.63;2.93;;;13.00;75.10;;;;;;5001080;28;20449;-74
2023/04/04 10:18:52;;;;;;;3.60;2.97;;;13.40;73.30;;;;;;4993907;28;20898;-73
2023/04/04 10:21:18;;;;;;;3.43;2.43;;;13.80;77.80;;;;;;5004390;28;20451;-73
2023/04/04 10:23:48;;;;;;;2.83;2.60;;;14.10;71.80;;;;;;5013647;28;20448;-74
2023/04/04 10:26:14;;;;;;;10.77;4.07;;;13.70;69.20;;;;;;4998333;28;20440;-76
2023/04/04 10:28:41;;;;;;;5.67;4.13;;;12.80;70.90;;;;;;5010688;28;20520;-79
2023/04/04 10:31:21;;;;;;;4.50;2.90;;;12.60;71.80;;;;;;4995488;28;21038;-73
2023/04/04 10:34:27;;;;;;;16.10;5.63;;;12.40;72.80;;;;;;4993698;28;20836;-73
2023/04/04 10:37:02;;;;;;;6.67;3.63;;;11.80;70.20;;;;;;4976809;28;20434;-73
2023/04/04 10:39:45;;;;;;;2.60;2.40;;;12.10;74.20;;;;;;4997335;28;20486;-73
2023/04/04 10:42:14;;;;;;;3.73;2.67;;;12.60;75.00;;;;;;4995324;28;20446;-73
2023/04/04 10:44:40;;;;;;;22.63;5.17;;;13.00;70.60;;;;;;4993961;28;21090;-72
2023/04/04 10:47:16;;;;;;;2.93;2.57;;;13.00;71.50;;;;;;4996342;28;20504;-73
2023/04/04 10:49:44;;;;;;;3.23;2.20;;;13.40;72.80;;;;;;4976847;28;20222;-72
2023/04/04 10:52:12;;;;;;;3.50;3.10;;;13.40;69.70;;;;;;4993137;28;20818;-73
2023/04/04 10:54:39;;;;;;;3.37;3.17;;;13.00;69.70;;;;;;4993431;28;20430;-73
2023/04/04 10:57:04;;;;;;;3.57;2.20;;;12.80;69.80;;;;;;4995203;28;20509;-74
2023/04/04 10:59:30;;;;;;;3.00;2.70;;;12.90;71.80;;;;;;5004869;28;20975;-74
2023/04/04 11:02:00;;;;;;;3.07;2.77;;;12.60;70.20;;;;;;4997158;28;20688;-74
2023/04/04 11:04:33;;;;;;;8.17;3.63;;;12.90;72.90;;;;;;5012824;28;20186;-73
2023/04/04 11:07:14;;;;;;;3.00;2.50;;;13.00;71.00;;;;;;4996592;28;20426;-75
2023/04/04 11:09:48;;;;;;;6.63;2.73;;;13.50;72.60;;;;;;5006294;28;20438;-74
2023/04/04 11:12:18;;;;;;;2.70;2.40;;;13.10;69.90;;;;;;5010511;28;20999;-75
2023/04/04 11:15:05;;;;;;;5.77;3.50;;;13.10;69.70;;;;;;4998756;28;20777;-75
2023/04/04 11:17:49;;;;;;;3.40;3.10;;;12.80;70.10;;;;;;4995375;28;20940;-73
2023/04/04 11:20:16;;;;;;;2.87;2.67;;;12.60;71.00;;;;;;5002747;28;20540;-73
2023/04/04 11:22:42;;;;;;;4.47;2.80;;;12.40;69.20;;;;;;4992267;28;20461;-73
2023/04/04 11:25:32;;;;;;;3.70;2.77;;;11.80;69.00;;;;;;4991558;28;20826;-73
2023/04/04 11:27:58;;;;;;;8.20;5.20;;;12.00;70.30;;;;;;4993274;28;20183;-74
2023/04/04 11:30:25;;;;;;;10.20;4.23;;;11.60;69.70;;;;;;5008331;28;20449;-73
2023/04/04 11:32:51;;;;;;;9.93;5.80;;;11.80;70.00;;;;;;4992391;28;20497;-74
2023/04/04 11:35:17;;;;;;;2.63;2.43;;;11.60;70.80;;;;;;4992440;28;20911;-73
2023/04/04 11:37:55;;;;;;;6.17;2.93;;;11.30;74.60;;;;;;4992316;28;20204;-73
2023/04/04 11:40:35;;;;;;;4.80;3.17;;;11.10;70.20;;;;;;5000722;28;20483;-72
2023/04/04 11:43:07;;;;;;;5.63;3.40;;;10.90;71.50;;;;;;5000075;28;20522;-73
2023/04/04 11:45:35;;;;;;;8.77;3.93;;;11.30;75.70;;;;;;4992254;28;20430;-73
2023/04/04 11:48:02;;;;;;;4.70;3.77;;;11.10;68.70;;;;;;4992288;28;20425;-72
2023/04/04 11:50:40;;;;;;;4.57;3.30;;;10.90;70.10;;;;;;4995743;28;20462;-73
2023/04/04 11:53:10;;;;;;;8.20;3.73;;;11.30;78.40;;;;;;5009076;28;20519;-71
2023/04/04 11:55:42;;;;;;;14.37;6.00;;;11.50;79.10;;;;;;4992242;28;20430;-72
2023/04/04 11:58:14;;;;;;;4.97;2.80;;;11.60;72.70;;;;;;4983160;28;20789;-71
2023/04/04 12:00:40;;;;;;;4.37;3.20;;;11.60;75.40;;;;;;4998008;28;20434;-72
2023/04/04 12:03:09;;;;;;;20.33;3.17;;;11.20;75.50;;;;;;5000218;28;20508;-70
2023/04/04 12:05:36;;;;;;;3.93;3.17;;;11.30;79.90;;;;;;4992118;28;20429;-74
2023/04/04 12:08:03;;;;;;;5.70;3.03;;;11.10;78.10;;;;;;4999649;28;20488;-72
2023/04/04 12:10:36;;;;;;;5.20;2.87;;;10.90;73.50;;;;;;4992190;28;20426;-71
2023/04/04 12:13:06;;;;;;;3.40;3.00;;;10.60;74.50;;;;;;4991990;28;20493;-72
2023/04/04 12:15:33;;;;;;;3.17;2.87;;;10.70;79.00;;;;;;4996201;28;20430;-71
2023/04/04 12:17:59;;;;;;;3.73;3.10;;;10.90;82.30;;;;;;4997188;28;20423;-73
2023/04/04 12:20:25;;;;;;;3.10;2.90;;;10.90;77.00;;;;;;4995693;28;20437;-72
2023/04/04 12:22:51;;;;;;;5.33;2.80;;;11.00;76.50;;;;;;5000587;28;20178;-73
2023/04/04 12:25:27;;;;;;;2.90;2.50;;;10.80;76.90;;;;;;4994161;28;20430;-72
2023/04/04 12:27:53;;;;;;;4.20;3.27;;;10.50;76.90;;;;;;5012057;28;20432;-73
2023/04/04 12:30:20;;;;;;;4.20;3.00;;;9.90;76.90;;;;;;4994255;28;20468;-73
2023/04/04 12:32:46;;;;;;;7.03;3.30;;;9.60;77.90;;;;;;4999613;28;20490;-72
2023/04/04 12:35:14;;;;;;;5.30;3.93;;;9.60;78.10;;;;;;5000350;28;20464;-72
2023/04/04 12:37:56;;;;;;;3.30;3.10;;;9.60;79.10;;;;;;4980255;28;20497;-73
2023/04/04 12:40:22;;;;;;;3.80;2.90;;;9.80;80.40;;;;;;4992103;28;20441;-72
2023/04/04 12:42:48;;;;;;;10.57;5.80;;;9.80;79.00;;;;;;4991618;28;20814;-73
2023/04/04 12:45:13;;;;;;;3.40;2.60;;;9.90;80.60;;;;;;4992243;28;20706;-72
2023/04/04 12:47:59;;;;;;;3.17;2.87;;;10.10;76.40;;;;;;5006602;28;20445;-72
2023/04/04 12:50:27;;;;;;;3.73;3.40;;;10.20;77.10;;;;;;4999376;28;20203;-72
2023/04/04 12:52:53;;;;;;;6.10;2.90;;;10.10;76.70;;;;;;5005169;28;20824;-72
2023/04/04 12:55:22;;;;;;;3.83;3.30;;;10.00;80.70;;;;;;4993154;28;20565;-73
2023/04/04 12:57:48;;;;;;;3.50;2.93;;;9.90;78.60;;;;;;4991150;28;20261;-73
2023/04/04 13:00:15;;;;;;;3.20;2.80;;;10.00;79.10;;;;;;4991099;28;20431;-73
2023/04/04 13:02:46;;;;;;;3.43;2.67;;;9.90;79.90;;;;;;4996854;28;20997;-72
2023/04/04 13:05:13;;;;;;;3.07;2.87;;;9.90;85.90;;;;;;4993798;28;20446;-72
2023/04/04 13:07:42;;;;;;;4.63;3.20;;;10.00;79.90;;;;;;4992468;28;20555;-70
2023/04/04 13:10:10;;;;;;;3.90;2.90;;;10.10;82.80;;;;;;5001196;28;20445;-72
2023/04/04 13:12:57;;;;;;;3.37;3.13;;;10.10;79.60;;;;;;5001023;28;20472;-73
2023/04/04 13:15:23;;;;;;;3.67;2.13;;;9.90;79.90;;;;;;5008948;28;20444;-73
2023/04/04 13:17:50;;;;;;;4.27;3.20;;;9.90;79.60;;;;;;4993340;28;20433;-73
2023/04/04 13:20:19;;;;;;;3.07;2.80;;;9.80;80.90;;;;;;5003174;28;20941;-74
2023/04/04 13:22:45;;;;;;;3.23;2.93;;;9.40;78.20;;;;;;5004651;28;20459;-71
2023/04/04 13:25:11;;;;;;;3.20;3.00;;;9.40;82.80;;;;;;4990763;28;20429;-71
2023/04/04 13:27:37;;;;;;;3.73;3.33;;;9.40;81.10;;;;;;4997186;28;20238;-72
2023/04/04 13:30:03;;;;;;;4.30;3.50;;;9.20;79.50;;;;;;4999926;28;20431;-75
2023/04/04 13:32:29;;;;;;;4.70;3.23;;;9.10;80.60;;;;;;4999222;28;20903;-72
2023/04/04 13:34:55;;;;;;;7.60;2.80;;;9.10;79.90;;;;;;4994603;28;20437;-73
2023/04/04 13:37:20;;;;;;;3.13;2.77;;;9.20;82.70;;;;;;4998322;28;20184;-74
2023/04/04 13:39:46;;;;;;;2.30;2.20;;;9.20;79.30;;;;;;5007275;28;20182;-73
2023/04/04 13:42:12;;;;;;;3.80;3.50;;;9.20;79.80;;;;;;5010759;28;20772;-72
2023/04/04 13:44:37;;;;;;;3.87;3.03;;;9.30;84.10;;;;;;5004273;28;20544;-72
2023/04/04 13:47:03;;;;;;;2.87;2.57;;;9.30;79.30;;;;;;4989362;28;20436;-73
2023/04/04 13:49:28;;;;;;;3.90;3.03;;;9.40;80.80;;;;;;5012370;28;20217;-71
2023/04/04 13:51:54;;;;;;;3.87;3.00;;;9.40;79.20;;;;;;5003237;28;20221;-72
2023/04/04 13:54:19;;;;;;;3.67;2.57;;;9.40;78.80;;;;;;5000233;28;20321;-73
2023/04/04 13:56:46;;;;;;;2.63;2.43;;;9.40;79.90;;;;;;5005464;28;20187;-72
2023/04/04 13:59:11;;;;;;;5.10;2.90;;;9.20;79.70;;;;;;5003028;28;20189;-73
2023/04/04 14:01:38;;;;;;;5.53;2.90;;;9.10;80.60;;;;;;5002369;28;20968;-73
2023/04/04 14:04:03;;;;;;;2.60;2.40;;;9.10;78.80;;;;;;5003525;28;20241;-72
2023/04/04 14:06:30;;;;;;;4.93;2.90;;;9.10;79.00;;;;;;5008317;28;20440;-72
2023/04/04 14:08:56;;;;;;;3.53;3.00;;;9.20;80.00;;;;;;5004312;28;20261;-72
2023/04/04 14:11:21;;;;;;;5.00;2.80;;;9.10;77.70;;;;;;5007169;28;20545;-73
2023/04/04 14:13:47;;;;;;;4.60;3.57;;;9.10;78.80;;;;;;4997276;28;20218;-73
2023/04/04 14:16:12;;;;;;;3.20;2.60;;;9.00;77.80;;;;;;4994009;28;20236;-73
2023/04/04 14:18:38;;;;;;;2.83;2.63;;;9.00;78.70;;;;;;5002041;28;20693;-73
2023/04/04 14:21:04;;;;;;;3.13;2.93;;;8.90;79.50;;;;;;5001760;28;20292;-72